Saint-Jovite, Quebec

1:44 AM EDT on August 28, 2015 (GMT -0400)
Les Suites De La Gare #858 Mont-Tremblant | | Change Station
CLOSE
Current Station
Personal Weather Station
Location: Mont-Tremblant, QUéBEC
Elevation: 705 ft
Nearby Weather Stations

Elev 705 ft 46.13 °N, 74.59 °W | Updated 14 minutes ago

Clear
Clear
48.7 °F
Feels Like 49 °F
N
0.0
Wind Variable Wind from North

Today is forecast to be nearly the same temperature as yesterday.

Today
High -- | Low -- °F
--% Chance of Precip.
Yesterday
High -- | Low -- °F
Precip. -- in
6:13 AM 7:44 PM
Waxing Gibbous, 96% visible
Pressure 30.13 in
Visibility 25.0 miles
Clouds Clear
Windchill 49 °F
Dew Point 48 °F
Humidity 99%
Rainfall Not available.
Snow Depth Not available.
UV 0 out of 12
Pollen Not available.
Air Quality Not available.
Flu Activity Not available.
METAR CYMX 280500Z 27004KT 25SM SKC 13/11 A3013 RMK SLP203
Pressure 30.13 in
Visibility 25.0 miles
Clouds Clear
Windchill 49 °F
Dew Point 48 °F
Humidity 99%
Rainfall Not available.
Snow Depth Not available.
UV 0 out of 12
Pollen Not available.
Air Quality Not available.
Flu Activity Not available.
METAR CYMX 280500Z 27004KT 25SM SKC 13/11 A3013 RMK SLP203

10-Day Weather Forecast

×

Almanac

Astronomy

Aug. 28, 2015 Rise Set
Actual Time
Civil Twilight
Nautical Twilight
Astronomical Twilight
Moon
Length of Visible Light
Length of Day
Tomorrow will be .
, % of the Moon is Illuminated

Today's Extremes

Country Highs Country Lows

Community

WunderPhotos

Upload Photos

1,850,341 photos uploaded!

WunderBlogs® & News

Nearby

Air Quality

  Air Quality AQ Index Pollutant
Not available.

Snow Depth

Station Depth Elevation

Earthquake Activity

City Distance Mag. Time & Date
Minimum magnitude displayed is 2.5.

Coastal Water Temperatures

Place Temperature

Stations

Nearby Weather Stations

Station Location Temp. Windchill Dew Point Humidity Wind Precip. Elev Updated Type